createdAt,value
2023-05-12T00:02:45.806Z,96509.00
2023-05-12T00:05:50.734Z,96508.88
2023-05-12T00:08:55.252Z,96496.78
2023-05-12T00:11:59.991Z,96490.84
2023-05-12T00:15:05.602Z,96495.56
2023-05-12T00:18:10.110Z,96483.59
2023-05-12T00:21:14.701Z,96494.00
2023-05-12T00:24:19.192Z,96491.06
2023-05-12T00:27:23.786Z,96471.53
2023-05-12T00:30:28.437Z,96489.59
2023-05-12T00:33:32.973Z,96496.41
2023-05-12T00:36:37.826Z,96495.69
2023-05-12T00:39:42.445Z,96494.78
2023-05-12T00:42:47.057Z,96485.91
2023-05-12T00:45:51.891Z,96491.00
2023-05-12T00:48:57.344Z,96492.81
2023-05-12T00:52:02.821Z,96498.53
2023-05-12T00:55:07.724Z,96496.00
2023-05-12T00:58:12.574Z,96470.03
2023-05-12T01:01:18.041Z,96483.13
2023-05-12T01:04:24.592Z,96495.41
2023-05-12T01:07:32.417Z,96501.38
2023-05-12T01:10:44.460Z,96493.53
2023-05-12T01:13:49.484Z,96494.97
2023-05-12T01:16:58.862Z,96495.69
2023-05-12T01:20:06.766Z,96501.38
2023-05-12T01:23:16.021Z,96498.66
2023-05-12T01:26:21.003Z,96509.66
2023-05-12T01:29:26.074Z,96497.50
2023-05-12T01:32:31.153Z,96506.84
2023-05-12T01:35:36.290Z,96506.16
2023-05-12T01:38:40.874Z,96512.25
2023-05-12T01:41:46.112Z,96517.16
2023-05-12T01:44:51.079Z,96497.94
2023-05-12T01:47:56.252Z,96502.69
2023-05-12T01:51:01.675Z,96509.72
2023-05-12T01:54:06.532Z,96505.38
2023-05-12T01:57:15.105Z,96521.13
2023-05-12T02:00:21.491Z,96511.09
2023-05-12T02:03:28.500Z,96523.41
2023-05-12T02:06:34.871Z,96518.63
2023-05-12T02:09:39.824Z,96523.78
2023-05-12T02:12:44.715Z,96525.50
2023-05-12T02:15:49.517Z,96522.38
2023-05-12T02:18:54.319Z,96519.63
2023-05-12T02:21:59.088Z,96518.66
2023-05-12T02:25:03.860Z,96523.78
2023-05-12T02:28:11.028Z,96526.34
2023-05-12T02:31:16.930Z,96524.06
2023-05-12T02:34:21.545Z,96520.34
2023-05-12T02:37:26.093Z,96518.94
2023-05-12T02:40:31.221Z,96517.88
2023-05-12T02:43:35.861Z,96519.56
2023-05-12T02:46:40.534Z,96512.81
2023-05-12T02:49:45.273Z,96515.38
2023-05-12T02:52:50.454Z,96512.53
2023-05-12T02:55:55.273Z,96527.84
2023-05-12T02:58:59.841Z,96521.75
2023-05-12T03:02:05.390Z,96514.91
2023-05-12T03:05:10.195Z,96507.00
2023-05-12T03:08:15.022Z,96524.19
2023-05-12T03:11:19.624Z,96519.97
2023-05-12T03:14:26.317Z,96519.69
2023-05-12T03:17:30.913Z,96514.16
2023-05-12T03:20:35.985Z,96521.94
2023-05-12T03:23:40.560Z,96526.28
2023-05-12T03:26:45.230Z,96522.88
2023-05-12T03:29:50.055Z,96517.31
2023-05-12T03:32:54.800Z,96523.44
2023-05-12T03:36:00.252Z,96524.19
2023-05-12T03:39:05.353Z,96519.13
2023-05-12T03:42:11.072Z,96520.03
2023-05-12T03:45:15.557Z,96523.50
2023-05-12T03:48:20.144Z,96509.47
2023-05-12T03:51:25.291Z,96516.47
2023-05-12T03:54:30.738Z,96517.84
2023-05-12T03:57:36.667Z,96513.53
2023-05-12T04:00:41.534Z,96523.84
2023-05-12T04:03:46.444Z,96526.03
2023-05-12T04:06:51.150Z,96522.13
2023-05-12T04:09:56.571Z,96527.97
2023-05-12T04:13:02.487Z,96526.06
2023-05-12T04:16:08.461Z,96530.06
2023-05-12T04:19:13.210Z,96540.53
2023-05-12T04:22:17.931Z,96537.16
2023-05-12T04:25:22.365Z,96537.97
2023-05-12T04:28:26.933Z,96546.72
2023-05-12T04:31:31.954Z,96544.09
2023-05-12T04:34:37.381Z,96544.59
2023-05-12T04:37:42.477Z,96544.03
2023-05-12T04:40:47.209Z,96553.44
2023-05-12T04:46:59.898Z,96563.31
2023-05-12T04:50:05.667Z,96558.94
2023-05-12T04:53:11.398Z,96566.00
2023-05-12T04:56:16.423Z,96563.16
2023-05-12T04:59:21.546Z,96566.75
2023-05-12T05:02:28.525Z,96549.25
2023-05-12T05:05:33.563Z,96565.50
2023-05-12T05:08:38.361Z,96566.22
2023-05-12T05:11:43.181Z,96550.94
2023-05-12T05:14:47.756Z,96565.69
2023-05-12T05:17:52.459Z,96569.06
2023-05-12T05:20:58.792Z,96576.09
2023-05-12T05:24:04.310Z,96555.81
2023-05-12T05:27:08.860Z,96579.91
2023-05-12T05:30:13.552Z,96569.22
2023-05-12T05:33:19.156Z,96574.00
2023-05-12T05:36:26.396Z,96568.56
2023-05-12T05:39:31.550Z,96581.25
2023-05-12T05:42:36.424Z,96581.56
2023-05-12T05:45:41.043Z,96585.03
2023-05-12T05:48:46.103Z,96589.97
2023-05-12T05:51:51.449Z,96593.75
2023-05-12T05:54:56.512Z,96592.41
2023-05-12T05:58:04.016Z,96591.03
2023-05-12T06:01:08.958Z,96600.16
2023-05-12T06:04:13.832Z,96596.66
2023-05-12T06:07:20.001Z,96603.38
2023-05-12T06:10:25.960Z,96600.44
2023-05-12T06:13:30.866Z,96598.75
2023-05-12T06:16:35.644Z,96601.16
2023-05-12T06:19:40.259Z,96600.59
2023-05-12T06:22:45.034Z,96611.06
2023-05-12T06:25:50.399Z,96613.66
2023-05-12T06:28:54.972Z,96614.09
2023-05-12T06:32:00.584Z,96617.00
2023-05-12T06:35:06.257Z,96618.28
2023-05-12T06:38:10.805Z,96608.75
2023-05-12T06:41:15.285Z,96614.13
2023-05-12T06:44:20.485Z,96614.91
2023-05-12T06:47:29.635Z,96622.03
2023-05-12T06:50:35.213Z,96619.25
2023-05-12T06:53:42.888Z,96621.00
2023-05-12T06:56:47.457Z,96626.66
2023-05-12T06:59:52.342Z,96614.22
2023-05-12T07:02:57.326Z,96631.44
2023-05-12T07:06:01.862Z,96623.09
2023-05-12T07:09:06.536Z,96620.06
2023-05-12T07:12:11.144Z,96621.72
2023-05-12T07:15:15.660Z,96624.09
2023-05-12T07:18:20.284Z,96618.88
2023-05-12T07:21:24.864Z,96632.09
2023-05-12T07:24:29.387Z,96626.66
2023-05-12T07:27:34.313Z,96631.06
2023-05-12T07:30:39.363Z,96631.19
2023-05-12T07:33:43.832Z,96625.50
2023-05-12T07:36:48.241Z,96628.31
2023-05-12T07:39:52.686Z,96627.97
2023-05-12T07:42:57.179Z,96628.31
2023-05-12T07:46:01.708Z,96624.75
2023-05-12T07:49:07.325Z,96634.72
2023-05-12T07:52:11.830Z,96640.44
2023-05-12T07:55:17.466Z,96639.78
2023-05-12T07:58:22.571Z,96634.00
2023-05-12T08:01:27.111Z,96636.88
2023-05-12T08:04:31.850Z,96641.53
2023-05-12T08:07:37.568Z,96641.75
2023-05-12T08:10:43.006Z,96639.22
2023-05-12T08:13:47.624Z,96642.06
2023-05-12T08:16:52.203Z,96642.16
2023-05-12T08:19:56.896Z,96645.00
2023-05-12T08:23:01.514Z,96647.91
2023-05-12T08:26:06.193Z,96649.03
2023-05-12T08:29:10.726Z,96643.03
2023-05-12T08:32:16.065Z,96648.13
2023-05-12T08:35:20.918Z,96647.00
2023-05-12T08:38:26.004Z,96644.06
2023-05-12T08:41:46.465Z,96642.28
2023-05-12T08:44:51.792Z,96649.63
2023-05-12T08:47:58.356Z,96643.50
2023-05-12T08:51:06.590Z,96654.81
2023-05-12T08:54:13.130Z,96649.13
2023-05-12T08:57:17.862Z,96650.75
2023-05-12T09:00:25.456Z,96644.81
2023-05-12T09:03:31.347Z,96652.38
2023-05-12T09:06:36.217Z,96655.34
2023-05-12T09:09:44.049Z,96660.41
2023-05-12T09:12:52.319Z,96650.66
2023-05-12T09:15:59.774Z,96649.66
2023-05-12T09:19:06.825Z,96649.09
2023-05-12T09:22:15.120Z,96658.19
2023-05-12T09:25:21.817Z,96662.84
2023-05-12T09:28:44.042Z,96672.13
2023-05-12T09:31:57.738Z,96668.09
2023-05-12T09:35:05.215Z,96666.47
2023-05-12T09:38:11.023Z,96664.06
2023-05-12T09:41:23.256Z,96663.19
2023-05-12T09:44:29.277Z,96668.75
2023-05-12T09:47:36.217Z,96660.44
2023-05-12T09:50:47.785Z,96669.97
2023-05-12T09:53:53.740Z,96668.38
2023-05-12T09:57:01.015Z,96665.75
2023-05-12T10:00:16.949Z,96672.53
2023-05-12T10:03:34.751Z,96669.28
2023-05-12T10:06:45.495Z,96674.41
2023-05-12T10:09:50.374Z,96669.88
2023-05-12T10:12:56.119Z,96672.75
2023-05-12T10:16:01.135Z,96674.84
2023-05-12T10:19:06.797Z,96671.19
2023-05-12T10:22:11.573Z,96667.31
2023-05-12T10:25:18.116Z,96671.31
2023-05-12T10:28:22.901Z,96654.59
2023-05-12T10:31:28.210Z,96667.84
2023-05-12T10:34:34.814Z,96658.75
2023-05-12T10:37:40.027Z,96656.28
2023-05-12T10:40:59.243Z,96667.25
2023-05-12T10:44:03.912Z,96664.38
2023-05-12T10:47:16.090Z,96675.53
2023-05-12T10:50:30.525Z,96669.03
2023-05-12T10:53:49.188Z,96674.44
2023-05-12T10:57:00.351Z,96663.34
2023-05-12T11:00:05.972Z,96674.19
2023-05-12T11:03:16.092Z,96673.50
2023-05-12T11:06:22.751Z,96680.31
2023-05-12T11:09:27.536Z,96675.81
2023-05-12T11:12:35.289Z,96680.31
2023-05-12T11:15:44.413Z,96660.63
2023-05-12T11:18:49.943Z,96679.56
2023-05-12T11:21:57.944Z,96689.66
2023-05-12T11:25:10.628Z,96678.44
2023-05-12T11:28:15.303Z,96684.63
2023-05-12T11:31:21.458Z,96680.25
2023-05-12T11:34:27.203Z,96681.72
2023-05-12T11:37:37.007Z,96682.75
2023-05-12T11:40:42.064Z,96679.81
2023-05-12T11:43:46.588Z,96683.00
2023-05-12T11:46:58.891Z,96680.63
2023-05-12T11:50:03.550Z,96689.13
2023-05-12T11:53:17.189Z,96686.34
2023-05-12T11:56:23.617Z,96695.13
2023-05-12T11:59:32.581Z,96693.41
2023-05-12T12:02:38.878Z,96698.34
2023-05-12T12:05:45.829Z,96708.75
2023-05-12T12:09:00.152Z,96703.66
2023-05-12T12:12:06.364Z,96708.22
2023-05-12T12:15:11.946Z,96707.22
2023-05-12T12:18:16.918Z,96714.69
2023-05-12T12:21:22.931Z,96706.00
2023-05-12T12:24:27.419Z,96716.09
2023-05-12T12:27:31.829Z,96720.81
2023-05-12T12:30:36.364Z,96706.59
2023-05-12T12:33:40.901Z,96720.63
2023-05-12T12:36:46.926Z,96714.91
2023-05-12T12:39:51.498Z,96723.97
2023-05-12T12:42:55.958Z,96716.56
2023-05-12T12:46:00.474Z,96724.91
2023-05-12T12:49:05.205Z,96727.84
2023-05-12T12:52:10.172Z,96716.94
2023-05-12T12:55:14.790Z,96723.66
2023-05-12T12:58:19.837Z,96710.25
2023-05-12T13:01:24.376Z,96712.50
2023-05-12T13:04:28.923Z,96718.34
2023-05-12T13:07:33.610Z,96714.81
2023-05-12T13:10:38.770Z,96718.25
2023-05-12T13:13:43.299Z,96723.56
2023-05-12T13:16:48.001Z,96711.28
2023-05-12T13:19:52.696Z,96718.63
2023-05-12T13:22:57.287Z,96711.91
2023-05-12T13:26:01.776Z,96718.66
2023-05-12T13:29:06.705Z,96724.25
2023-05-12T13:32:11.304Z,96720.13
2023-05-12T13:35:15.914Z,96710.50
2023-05-12T13:38:20.646Z,96721.59
2023-05-12T13:41:25.229Z,96710.38
2023-05-12T13:44:29.975Z,96716.03
2023-05-12T13:47:35.014Z,96717.19
2023-05-12T13:50:39.698Z,96720.00
2023-05-12T13:53:44.215Z,96719.59
2023-05-12T13:56:52.178Z,96721.59
2023-05-12T13:59:58.418Z,96708.34
2023-05-12T14:03:02.973Z,96718.09
2023-05-12T14:06:07.632Z,96716.72
2023-05-12T14:09:12.109Z,96725.84
2023-05-12T14:12:17.042Z,96719.00
2023-05-12T14:15:29.606Z,96725.34
2023-05-12T14:18:43.174Z,96713.03
2023-05-12T14:21:48.094Z,96723.13
2023-05-12T14:24:52.861Z,96705.91
2023-05-12T14:27:57.331Z,96710.97
2023-05-12T14:31:03.271Z,96719.63
2023-05-12T14:34:09.184Z,96718.75
2023-05-12T14:37:13.936Z,96725.75
2023-05-12T14:40:18.462Z,96731.28
2023-05-12T14:43:23.051Z,96738.88
2023-05-12T14:46:27.621Z,96742.88
2023-05-12T14:49:32.448Z,96748.72
2023-05-12T14:52:38.551Z,96743.31
2023-05-12T14:55:43.169Z,96741.44
2023-05-12T14:58:48.895Z,96751.09
2023-05-12T15:01:53.528Z,96739.09
2023-05-12T15:04:58.142Z,96746.78
2023-05-12T15:08:02.802Z,96735.91
2023-05-12T15:11:07.563Z,96748.94
2023-05-12T15:14:12.869Z,96747.78
2023-05-12T15:17:17.734Z,96749.13
2023-05-12T15:20:22.498Z,96734.34
2023-05-12T15:23:27.171Z,96746.25
2023-05-12T15:26:34.194Z,96759.25
2023-05-12T15:29:40.633Z,96756.88
2023-05-12T15:32:45.316Z,96761.31
2023-05-12T15:35:49.849Z,96759.97
2023-05-12T15:38:54.555Z,96750.25
2023-05-12T15:41:59.977Z,96749.41
2023-05-12T15:45:04.912Z,96762.63
2023-05-12T15:48:09.864Z,96745.03
2023-05-12T15:51:14.379Z,96755.53
2023-05-12T15:54:19.202Z,96761.06
2023-05-12T15:57:24.010Z,96757.97
2023-05-12T16:00:28.582Z,96758.66
2023-05-12T16:03:33.095Z,96760.16
2023-05-12T16:06:37.679Z,96762.00
2023-05-12T16:09:42.233Z,96758.53
2023-05-12T16:12:46.854Z,96755.84
2023-05-12T16:15:51.314Z,96755.94
2023-05-12T16:18:55.863Z,96749.81
2023-05-12T16:22:00.615Z,96751.91
2023-05-12T16:25:05.606Z,96754.59
2023-05-12T16:28:10.108Z,96760.09
2023-05-12T16:31:17.869Z,96756.41
2023-05-12T16:34:24.955Z,96764.22
2023-05-12T16:37:29.389Z,96757.41
2023-05-12T16:40:33.835Z,96758.09
2023-05-12T16:43:38.561Z,96772.25
2023-05-12T16:46:43.252Z,96763.47
2023-05-12T16:49:52.627Z,96766.75
2023-05-12T16:52:57.123Z,96771.41
2023-05-12T16:56:01.899Z,96772.66
2023-05-12T16:59:06.522Z,96774.31
2023-05-12T17:02:11.086Z,96762.13
2023-05-12T17:05:15.784Z,96778.59
2023-05-12T17:08:20.695Z,96771.13
2023-05-12T17:11:26.082Z,96780.19
2023-05-12T17:14:31.016Z,96781.03
2023-05-12T17:17:36.045Z,96784.66
2023-05-12T17:20:40.739Z,96771.03
2023-05-12T17:23:45.765Z,96782.03
2023-05-12T17:26:50.395Z,96787.66
2023-05-12T17:29:54.979Z,96794.63
2023-05-12T17:32:59.578Z,96795.53
2023-05-12T17:36:12.430Z,96798.19
2023-05-12T17:39:17.611Z,96784.59
2023-05-12T17:42:23.070Z,96800.19
2023-05-12T17:45:28.299Z,96800.34
2023-05-12T17:48:33.256Z,96797.00
2023-05-12T17:51:39.075Z,96798.50
2023-05-12T17:54:43.787Z,96793.91
2023-05-12T17:57:49.605Z,96801.78
2023-05-12T18:00:54.174Z,96786.09
2023-05-12T18:03:58.927Z,96795.47
2023-05-12T18:07:03.490Z,96795.28
2023-05-12T18:10:11.804Z,96799.34
2023-05-12T18:13:16.532Z,96796.59
2023-05-12T18:16:28.544Z,96798.63
2023-05-12T18:19:33.693Z,96805.63
2023-05-12T18:22:38.436Z,96801.06
2023-05-12T18:25:43.359Z,96782.47
2023-05-12T18:28:47.918Z,96790.66
2023-05-12T18:31:52.578Z,96802.38
2023-05-12T18:34:57.266Z,96795.59
2023-05-12T18:38:01.871Z,96800.84
2023-05-12T18:41:06.958Z,96797.91
2023-05-12T18:44:11.601Z,96806.31
2023-05-12T18:47:16.394Z,96798.31
2023-05-12T18:50:20.825Z,96799.66
2023-05-12T18:53:25.634Z,96801.41
2023-05-12T18:56:30.392Z,96798.88
2023-05-12T18:59:34.823Z,96796.81
2023-05-12T19:02:42.083Z,96807.13
2023-05-12T19:05:48.603Z,96805.25
2023-05-12T19:08:53.369Z,96808.44
2023-05-12T19:11:58.658Z,96815.16
2023-05-12T19:15:03.335Z,96814.75
2023-05-12T19:18:07.749Z,96811.31
2023-05-12T19:21:12.545Z,96807.59
2023-05-12T19:24:16.910Z,96815.09
2023-05-12T19:27:21.443Z,96818.84
2023-05-12T19:30:26.885Z,96824.94
2023-05-12T19:33:32.217Z,96825.53
2023-05-12T19:36:36.782Z,96827.75
2023-05-12T19:39:41.181Z,96823.63
2023-05-12T19:42:45.910Z,96825.91
2023-05-12T19:45:50.669Z,96830.47
2023-05-12T19:48:55.204Z,96828.06
2023-05-12T19:51:59.754Z,96818.25
2023-05-12T19:55:04.287Z,96827.13
2023-05-12T19:58:08.915Z,96823.13
2023-05-12T20:01:13.413Z,96827.97
2023-05-12T20:04:18.062Z,96824.47
2023-05-12T20:07:22.497Z,96822.91
2023-05-12T20:10:26.945Z,96830.84
2023-05-12T20:13:31.696Z,96833.66
2023-05-12T20:16:36.333Z,96830.75
2023-05-12T20:19:40.911Z,96835.66
2023-05-12T20:22:45.393Z,96834.59
2023-05-12T20:25:51.216Z,96828.81
2023-05-12T20:28:55.630Z,96829.88
2023-05-12T20:32:00.094Z,96831.34
2023-05-12T20:35:05.354Z,96826.38
2023-05-12T20:38:09.942Z,96829.19
2023-05-12T20:41:14.273Z,96825.13
2023-05-12T20:44:18.733Z,96825.66
2023-05-12T20:47:24.260Z,96820.19
2023-05-12T20:50:28.715Z,96818.88
2023-05-12T20:53:33.473Z,96827.13
2023-05-12T20:56:38.126Z,96819.03
2023-05-12T20:59:42.582Z,96827.25
2023-05-12T21:02:49.625Z,96827.19
2023-05-12T21:05:54.054Z,96824.94
2023-05-12T21:08:58.500Z,96826.38
2023-05-12T21:12:02.939Z,96824.94
2023-05-12T21:15:09.493Z,96826.38
2023-05-12T21:18:13.940Z,96826.69
2023-05-12T21:21:18.573Z,96820.47
2023-05-12T21:24:22.931Z,96819.06
2023-05-12T21:27:27.318Z,96821.81
2023-05-12T21:30:31.816Z,96816.47
2023-05-12T21:33:36.512Z,96814.97
2023-05-12T21:36:40.905Z,96817.41
2023-05-12T21:39:45.337Z,96817.63
2023-05-12T21:42:49.638Z,96819.03
2023-05-12T21:45:54.098Z,96810.84
2023-05-12T21:48:58.533Z,96819.09
2023-05-12T21:52:03.148Z,96820.84
2023-05-12T21:55:07.957Z,96822.41
2023-05-12T21:58:12.371Z,96816.28
2023-05-12T22:01:19.798Z,96817.44
2023-05-12T22:04:24.239Z,96823.81
2023-05-12T22:07:29.412Z,96821.44
2023-05-12T22:10:33.822Z,96829.34
2023-05-12T22:13:38.213Z,96823.56
2023-05-12T22:16:42.971Z,96819.63
2023-05-12T22:19:47.430Z,96827.47
2023-05-12T22:22:51.814Z,96828.88
2023-05-12T22:25:56.425Z,96823.53
2023-05-12T22:29:01.697Z,96821.28
2023-05-12T22:32:06.192Z,96824.34
2023-05-12T22:35:10.548Z,96825.91
2023-05-12T22:38:14.912Z,96818.59
2023-05-12T22:41:19.285Z,96821.25
2023-05-12T22:44:23.677Z,96825.25
2023-05-12T22:47:28.206Z,96814.25
2023-05-12T22:50:32.669Z,96817.69
2023-05-12T22:53:37.119Z,96812.66
2023-05-12T22:56:41.597Z,96811.88
2023-05-12T22:59:45.954Z,96808.03
2023-05-12T23:02:50.556Z,96806.84
2023-05-12T23:05:55.032Z,96807.44
2023-05-12T23:08:59.529Z,96808.03
2023-05-12T23:12:04.664Z,96811.69
2023-05-12T23:15:09.184Z,96812.91
2023-05-12T23:18:13.634Z,96803.22
2023-05-12T23:21:18.120Z,96803.72
2023-05-12T23:24:22.630Z,96795.44
2023-05-12T23:27:27.105Z,96803.25
2023-05-12T23:30:32.158Z,96793.88
2023-05-12T23:33:36.911Z,96795.03
2023-05-12T23:36:41.393Z,96786.28
2023-05-12T23:39:46.019Z,96786.88
2023-05-12T23:42:50.498Z,96785.47
2023-05-12T23:45:54.897Z,96783.44
2023-05-12T23:48:59.344Z,96789.31
2023-05-12T23:52:03.857Z,96791.69
2023-05-12T23:55:08.432Z,96778.88
2023-05-12T23:58:13.191Z,96778.88
